Latest Weather Observations for Mackay Airport

IDQ60801

Issued at 8:02 pm EST Sunday 14 February 2016 (issued every 30 minutes, with the page automatically refreshed every 10 minutes)

About weather observations | Map of weather stations | Latest weather observations for QLD | Other Formats
Station Details ID: 033045 Name: MACKAY AERO Lat: -21.17 Lon: 149.18 Height: 4.7 m
Data from the previous 72 hours. | See also: Recent months at Mackay Airport
Date/Time
EST
Temp
°C
App
Temp
°C
Dew
Point
Rel
Hum
%
Delta-T
°C
Wind Press
QNH
hPa
Press
MSL
hPa
Rain
since 9 am
mm
Dir
 
Spd
km/h
Gust
km/h
Spd
kts
Gust
kts
14/08:00pm 26.7 30.2 22.8 79 2.6 E 9 13 5 7 1008.4 1008.4 0.0
14/07:30pm 27.1 29.9 22.3 75 3.2 E 11 13 6 7 1007.9 1007.9 0.0
14/07:00pm 27.4 30.1 22.8 76 3.1 E 13 17 7 9 1007.3 1007.3 0.0
14/06:30pm 27.7 30.1 22.2 72 3.7 ENE 13 17 7 9 1006.7 1006.7 0.0
14/06:00pm 28.4 30.4 22.2 69 4.2 E 15 19 8 10 1006.1 1006.1 0.0
14/05:30pm 29.0 30.9 22.0 66 4.7 E 15 19 8 10 1005.7 1005.7 0.0
14/05:00pm 29.4 31.7 22.1 65 4.9 E 13 19 7 10 1005.5 1005.5 0.0
14/04:30pm 29.3 30.5 21.5 63 5.2 E 17 24 9 13 1005.1 1005.1 0.0
14/04:00pm 29.6 31.0 21.8 63 5.3 E 17 20 9 11 1005.0 1005.0 0.0
14/03:30pm 29.4 30.6 22.1 65 4.9 E 19 24 10 13 1005.0 1005.0 0.0
14/03:00pm 29.4 30.7 22.6 67 4.6 E 20 26 11 14 1005.0 1005.0 0.0
14/02:30pm 29.6 30.1 22.6 66 4.8 E 24 30 13 16 1005.3 1005.3 0.0
14/02:00pm 29.5 29.8 22.2 65 5.0 ESE 24 30 13 16 1005.4 1005.4 0.0
14/01:30pm 29.6 30.2 22.1 64 5.1 E 22 28 12 15 1005.7 1005.7 0.0
14/01:00pm 29.5 31.2 23.4 69 4.2 ESE 20 26 11 14 1006.1 1006.1 0.0
14/12:30pm 29.0 29.8 22.5 68 4.4 ESE 22 28 12 15 1006.5 1006.5 0.0
14/12:00pm 29.0 30.5 23.0 70 4.1 E 20 26 11 14 1006.8 1006.8 0.0
14/11:30am 28.9 30.0 21.9 66 4.7 E 19 24 10 13 1007.2 1007.2 0.0
14/11:00am 29.6 32.2 23.3 69 4.3 E 15 20 8 11 1007.4 1007.4 0.0
14/10:30am 28.9 32.1 23.1 71 4.0 E 11 19 6 10 1007.8 1007.8 0.0
14/10:00am 28.5 31.1 22.7 71 3.9 ESE 13 17 7 9 1008.0 1008.0 0.0
14/09:30am 28.4 31.1 22.9 72 3.7 ESE 13 19 7 10 1008.2 1008.2 0.0
14/09:00am 27.5 30.4 22.4 73 3.4 S 11 19 6 10 1008.3 1008.3 0.2
14/08:30am 27.2 30.3 22.8 77 3.0 S 11 17 6 9 1008.2 1008.2 0.2
14/08:00am 26.3 29.4 22.8 81 2.4 SW 11 13 6 7 1008.1 1008.1 0.2
14/07:30am 25.3 29.4 23.2 88 1.4 WSW 7 9 4 5 1007.9 1007.9 0.2
14/07:00am 24.0 27.3 22.6 92 0.9 WSW 9 11 5 6 1007.7 1007.7 0.2
14/06:30am 23.0 26.2 22.3 96 0.5 WSW 9 13 5 7 1007.5 1007.5 0.2
14/06:00am 22.5 25.2 22.2 98 0.2 WSW 11 13 6 7 1007.3 1007.3 0.2
14/05:30am 22.3 25.2 21.8 97 0.3 WSW 9 11 5 6 1007.1 1007.1 0.2
14/05:00am 22.7 25.4 22.2 97 0.3 WSW 11 13 6 7 1007.0 1007.0 0.2
14/04:30am 22.9 26.0 22.2 96 0.5 WSW 9 11 5 6 1006.9 1006.9 0.2
14/04:00am 23.2 26.1 22.5 96 0.5 W 11 13 6 7 1006.8 1006.8 0.2
14/03:30am 23.4 26.9 22.9 97 0.3 WSW 9 13 5 7 1006.8 1006.8 0.2
14/03:00am 22.8 26.0 22.3 97 0.3 SW 9 11 5 6 1006.7 1006.7 0.2
14/02:30am 23.1 26.1 22.6 97 0.3 SW 11 15 6 8 1006.7 1006.7 0.2
14/02:00am 23.3 25.8 22.5 95 0.5 WSW 13 17 7 9 1006.9 1006.9 0.2
14/01:30am 23.7 27.5 22.7 94 0.7 SW 7 9 4 5 1007.3 1007.3 0.2
14/01:00am 23.8 27.1 22.6 93 0.8 SW 9 13 5 7 1007.9 1007.9 0.2
14/12:30am 24.4 28.6 23.2 93 0.8 SE 6 13 3 7 1008.0 1008.0 0.2
14/12:00am 23.7 27.3 22.3 92 0.9 WSW 7 9 4 5 1008.0 1008.0 0.0
 
Date/Time
EST
Temp
°C
App
Temp
°C
Dew
Point
Rel
Hum
%
Delta-T
°C
Wind Press
QNH
hPa
Press
MSL
hPa
Rain
since 9 am
mm
Dir
 
Spd
km/h
Gust
km/h
Spd
kts
Gust
kts
13/11:30pm 24.0 27.2 22.3 90 1.1 WSW 9 9 5 5 1008.2 1008.2 0.0
13/11:00pm 24.1 27.0 22.5 91 1.1 SW 11 13 6 7 1008.5 1008.5 0.0
13/10:30pm 24.5 28.3 22.8 90 1.1 SSW 7 9 4 5 1008.7 1008.7 0.0
13/10:00pm 24.4 27.5 22.1 87 1.5 SSW 9 11 5 6 1008.4 1008.4 0.0
13/09:30pm 24.8 28.1 22.5 87 1.5 ESE 9 11 5 6 1008.2 1008.2 0.0
13/09:00pm 25.2 28.6 22.7 86 1.7 ESE 9 9 5 5 1007.9 1007.9 0.0
13/08:30pm 26.2 29.8 23.1 83 2.1 ESE 9 11 5 6 1007.7 1007.7 0.0
13/08:00pm 26.7 28.8 22.5 78 2.8 ESE 15 17 8 9 1007.5 1007.5 0.0
13/07:30pm 26.8 29.2 22.2 76 3.1 ESE 13 15 7 8 1007.1 1007.1 0.0
13/07:00pm 27.0 28.9 22.0 74 3.4 ESE 15 19 8 10 1006.4 1006.4 0.0
13/06:30pm 27.3 28.8 21.3 69 4.0 ESE 15 20 8 11 1005.8 1005.8 0.0
13/06:00pm 27.9 28.5 21.4 67 4.3 ESE 20 24 11 13 1005.6 1005.6 0.0
13/05:30pm 28.7 29.0 20.4 60 5.5 ESE 19 26 10 14 1005.4 1005.4 0.0
13/05:00pm 29.3 28.7 20.5 59 5.8 ESE 24 28 13 15 1005.2 1005.2 0.0
13/04:30pm 29.6 29.6 21.0 60 5.7 ESE 22 28 12 15 1005.1 1005.1 0.0
13/04:00pm 30.0 29.7 21.1 59 6.0 ESE 24 30 13 16 1005.2 1005.2 0.0
13/03:30pm 30.0 29.3 21.1 59 5.9 SE 26 33 14 18 1005.3 1005.3 0.0
13/03:00pm 29.9 28.5 20.5 57 6.2 ESE 28 35 15 19 1005.5 1005.5 0.0
13/02:30pm 29.6 28.3 20.7 58 5.9 ESE 28 32 15 17 1005.9 1005.9 0.0
13/02:00pm 29.5 27.9 20.1 57 6.2 ESE 28 33 15 18 1006.3 1006.3 0.0
13/01:30pm 29.5 28.6 21.4 61 5.4 ESE 28 35 15 19 1006.7 1006.7 0.0
13/01:00pm 28.7 26.8 20.2 60 5.6 ESE 30 35 16 19 1007.1 1007.1 0.0
13/12:30pm 28.9 27.0 20.1 59 5.8 ESE 30 35 16 19 1007.4 1007.4 0.0
13/12:00pm 29.1 28.4 21.1 62 5.3 E 26 33 14 18 1007.8 1007.8 0.0
13/11:30am 28.7 27.8 20.7 62 5.3 ESE 26 32 14 17 1008.2 1008.2 0.0
13/11:00am 29.8 29.1 19.5 54 6.7 SE 22 30 12 16 1008.6 1008.6 0.0
13/10:30am 29.3 29.6 20.7 59 5.7 SSE 20 30 11 16 1008.9 1008.9 0.0
13/10:00am 28.5 27.9 19.7 59 5.7 SSE 22 32 12 17 1009.0 1009.0 0.0
13/09:30am 27.7 27.2 20.0 63 5.0 S 22 30 12 16 1009.1 1009.1 0.0
13/09:00am 27.0 26.2 20.1 66 4.5 S 24 32 13 17 1009.2 1009.2 0.4
13/08:30am 26.6 25.4 20.0 67 4.3 S 26 33 14 18 1009.0 1009.0 0.4
13/08:00am 25.7 26.1 20.9 75 3.2 S 20 28 11 15 1009.0 1009.0 0.4
13/07:30am 24.9 26.3 21.8 83 2.1 S 17 20 9 11 1008.7 1008.7 0.4
13/07:00am 23.9 26.2 22.0 89 1.3 SSW 13 15 7 8 1008.4 1008.4 0.4
13/06:30am 23.2 25.0 21.8 92 0.9 SSW 15 17 8 9 1007.9 1007.9 0.4
13/06:00am 22.8 24.6 21.8 94 0.7 SSW 15 19 8 10 1007.5 1007.5 0.4
13/05:30am 22.0 24.3 21.3 96 0.5 SSW 11 15 6 8 1007.4 1007.4 0.4
13/05:00am 22.6 25.1 21.8 95 0.5 SW 11 15 6 8 1007.2 1007.2 0.4
13/04:30am 22.4 25.1 21.4 94 0.7 SW 9 11 5 6 1007.0 1007.0 0.4
13/04:00am 22.9 25.5 21.9 94 0.7 SW 11 13 6 7 1007.0 1007.0 0.4
13/03:30am 23.1 25.1 22.3 95 0.5 SSW 15 19 8 10 1006.8 1006.8 0.4
13/03:00am 22.7 25.3 22.0 96 0.5 SSW 11 13 6 7 1007.0 1007.0 0.4
13/02:30am 22.8 25.8 22.0 95 0.5 WSW 9 11 5 6 1007.2 1007.2 0.4
13/02:00am 23.1 26.3 22.3 95 0.5 SW 9 11 5 6 1007.6 1007.6 0.4
13/01:30am 23.8 26.9 22.8 94 0.7 S 11 13 6 7 1008.0 1008.0 0.4
13/01:00am 24.1 26.7 22.7 92 0.9 S 13 15 7 8 1008.3 1008.3 0.0
13/12:30am 24.4 26.3 22.8 91 1.1 S 17 22 9 12 1008.7 1008.7 0.0
13/12:00am 24.1 27.1 22.7 92 0.9 SSW 11 13 6 7 1009.0 1009.0 0.0
 
Date/Time
EST
Temp
°C
App
Temp
°C
Dew
Point
Rel
Hum
%
Delta-T
°C
Wind Press
QNH
hPa
Press
MSL
hPa
Rain
since 9 am
mm
Dir
 
Spd
km/h
Gust
km/h
Spd
kts
Gust
kts
12/11:30pm 24.1 27.5 22.7 92 0.9 SSW 9 13 5 7 1009.4 1009.4 0.0
12/11:00pm 25.0 27.6 22.7 87 1.6 S 13 17 7 9 1009.8 1009.8 0.0
12/10:30pm 25.9 28.5 22.6 82 2.2 SSE 13 19 7 10 1009.6 1009.6 0.0
12/10:00pm 25.3 28.2 22.4 84 1.9 S 11 17 6 9 1009.6 1009.6 0.0
12/09:30pm 26.5 27.8 22.6 79 2.6 SE 20 26 11 14 1009.4 1009.4 0.0
12/09:00pm 26.8 27.7 22.0 75 3.2 SE 20 26 11 14 1009.1 1009.1 0.0
12/08:30pm 27.2 28.2 22.2 74 3.4 ESE 20 30 11 16 1008.8 1008.8 0.0
12/08:00pm 27.0 27.5 22.6 77 3.0 ESE 24 32 13 17 1008.5 1008.5 0.0
12/07:30pm 27.1 27.6 22.7 77 3.0 ESE 24 32 13 17 1008.3 1008.3 0.0
12/07:00pm 27.3 27.5 22.0 73 3.6 SE 24 32 13 17 1008.0 1008.0 0.0
12/06:30pm 27.3 27.7 22.5 75 3.2 SE 24 30 13 16 1007.5 1007.5 0.0
12/06:00pm 27.7 28.0 22.2 72 3.7 ESE 24 35 13 19 1007.2 1007.2 0.0
12/05:30pm 28.4 26.9 20.9 64 5.0 ESE 30 37 16 20 1007.1 1007.1 0.0
12/05:00pm 28.7 27.6 21.7 66 4.7 ESE 30 39 16 21 1006.8 1006.8 0.0
12/04:30pm 28.7 28.1 22.0 67 4.5 ESE 28 35 15 19 1006.6 1006.6 0.0
12/04:00pm 28.8 28.1 21.8 66 4.7 ESE 28 35 15 19 1006.7 1006.7 0.0
12/03:30pm 29.3 29.1 22.0 64 4.9 ESE 26 35 14 19 1006.5 1006.5 0.0
12/03:00pm 29.2 29.0 22.7 68 4.4 ESE 28 35 15 19 1006.8 1006.8 0.0
12/02:30pm 29.0 28.2 21.7 64 4.9 ESE 28 37 15 20 1007.1 1007.1 0.0
12/02:00pm 29.2 28.3 22.2 66 4.7 ESE 30 37 16 20 1007.4 1007.4 0.0
12/01:30pm 29.3 28.8 22.8 68 4.4 ESE 30 35 16 19 1007.6 1007.6 0.0
12/01:00pm 29.2 29.0 22.7 68 4.4 ESE 28 35 15 19 1008.1 1008.1 0.0
12/12:30pm 29.6 30.0 24.5 74 3.6 ESE 30 37 16 20 1008.4 1008.4 0.0
12/12:00pm 28.5 27.5 22.0 68 4.4 ESE 30 37 16 20 1008.9 1008.9 0.0
12/11:30am 28.3 27.1 22.3 70 4.1 ESE 32 39 17 21 1009.2 1009.2 0.0
12/11:00am 28.9 28.4 23.6 73 3.7 ESE 32 37 17 20 1009.6 1009.6 0.0
12/10:30am 29.0 29.2 22.7 69 4.3 SE 26 33 14 18 1009.8 1009.8 0.0
12/10:00am 28.4 28.5 21.9 68 4.4 SE 24 32 13 17 1010.0 1010.0 0.0
12/09:30am 28.5 29.6 22.3 69 4.2 SSE 20 28 11 15 1010.0 1010.0 0.0
12/09:00am 27.9 28.7 22.4 72 3.7 S 22 32 12 17 1010.0 1010.0 0.0
12/08:30am 27.4 27.6 22.1 73 3.6 SSE 24 30 13 16 1010.1 1010.1 0.0
12/08:00am 26.7 27.8 22.3 77 3.0 S 20 30 11 16 1010.0 1010.0 0.0
12/07:30am 25.6 27.7 22.5 83 2.1 SSW 15 19 8 10 1009.9 1009.9 0.0
12/07:00am 24.6 28.0 22.7 89 1.3 SSW 9 13 5 7 1009.6 1009.6 0.0
12/06:30am 23.2 26.1 22.5 96 0.5 SW 11 13 6 7 1009.3 1009.3 0.0
12/06:00am 22.5 25.4 21.8 96 0.5 SW 9 13 5 7 1009.2 1009.2 0.0
12/05:30am 22.8 25.5 22.1 96 0.5 SW 11 13 6 7 1008.9 1008.9 0.0
12/05:00am 23.1 25.8 22.1 94 0.7 SSW 11 13 6 7 1008.7 1008.7 0.0
12/04:30am 24.4 26.3 22.7 90 1.1 S 17 20 9 11 1008.4 1008.4 0.0
12/04:00am 23.8 26.6 23.0 95 0.5 SSW 13 17 7 9 1008.5 1008.5 0.0
12/03:30am 23.8 27.0 23.1 96 0.5 SSW 11 15 6 8 1008.4 1008.4 0.0
12/03:00am 24.0 27.2 23.1 95 0.6 SSW 11 15 6 8 1008.2 1008.2 0.0
12/02:30am 24.1 27.0 23.2 95 0.6 SSW 13 13 7 7 1008.3 1008.3 0.0
12/02:00am 24.7 28.2 23.5 93 0.8 S 11 13 6 7 1008.5 1008.5 0.0
12/01:30am 24.6 28.0 23.4 93 0.8 SSW 11 13 6 7 1008.7 1008.7 0.0
12/01:00am 24.8 27.6 23.6 93 0.8 SSW 15 20 8 11 1009.0 1009.0 0.0
12/12:30am 24.8 27.2 23.0 90 1.2 SW 15 17 8 9 1009.3 1009.3 0.0
12/12:00am 26.7 27.9 22.5 78 2.8 SE 20 28 11 15 1009.4 1009.4 0.0
 
Date/Time
EST
Temp
°C
App
Temp
°C
Dew
Point
Rel
Hum
%
Delta-T
°C
Wind Press
QNH
hPa
Press
MSL
hPa
Rain
since 9 am
mm
Dir
 
Spd
km/h
Gust
km/h
Spd
kts
Gust
kts
11/11:30pm 25.6 29.3 23.3 87 1.6 S 9 15 5 8 1009.5 1009.5 0.0
11/11:00pm 26.9 28.2 22.7 78 2.8 SE 20 26 11 14 1009.8 1009.8 0.0
11/10:30pm 26.6 29.1 23.1 81 2.4 SSE 15 22 8 12 1009.8 1009.8 0.0
11/10:00pm 26.1 29.3 23.0 83 2.1 S 11 13 6 7 1009.7 1009.7 0.0
11/09:30pm 26.4 28.8 22.9 81 2.4 SSE 15 19 8 10 1009.7 1009.7 0.0
11/09:00pm 26.7 28.6 22.8 79 2.6 SE 17 20 9 11 1009.6 1009.6 0.0
11/08:30pm 26.3 27.9 22.8 81 2.4 SE 19 22 10 12 1009.4 1009.4 0.0

Other Formats:

Comma delimited format used in spreadsheet applications
http://www.bom.gov.au/fwo/IDQ60801/IDQ60801.95367.axf

JavaScript Object Notation format (JSON) in row-major order
http://www.bom.gov.au/fwo/IDQ60801/IDQ60801.95367.json